createdAt,value
2019-03-23T00:00:27.270Z,972.93
2019-03-23T00:01:27.263Z,972.92
2019-03-23T00:02:27.257Z,972.95
2019-03-23T00:03:27.250Z,972.90
2019-03-23T00:04:27.250Z,972.93
2019-03-23T00:05:27.245Z,972.94
2019-03-23T00:06:31.019Z,972.90
2019-03-23T00:07:27.238Z,972.91
2019-03-23T00:08:27.229Z,972.94
2019-03-23T00:09:27.229Z,972.90
2019-03-23T00:10:27.224Z,972.91
2019-03-23T00:11:27.224Z,972.86
2019-03-23T00:12:27.213Z,972.91
2019-03-23T00:13:27.212Z,972.88
2019-03-23T00:14:27.204Z,972.87
2019-03-23T00:15:27.203Z,972.89
2019-03-23T00:16:27.196Z,972.88
2019-03-23T00:17:27.191Z,972.89
2019-03-23T00:18:27.212Z,972.84
2019-03-23T00:19:27.239Z,972.85
2019-03-23T00:20:27.177Z,972.92
2019-03-23T00:21:27.172Z,972.86
2019-03-23T00:22:27.172Z,972.83
2019-03-23T00:23:27.225Z,972.87
2019-03-23T00:24:27.185Z,972.85
2019-03-23T00:25:27.152Z,972.83
2019-03-23T00:26:27.152Z,972.77
2019-03-23T00:27:27.162Z,972.79
2019-03-23T00:28:27.143Z,972.76
2019-03-23T00:29:27.136Z,972.84
2019-03-23T00:30:27.136Z,972.80
2019-03-23T00:31:27.153Z,972.74
2019-03-23T00:32:27.133Z,972.77
2019-03-23T00:33:27.117Z,972.78
2019-03-23T00:34:27.115Z,972.79
2019-03-23T00:35:27.106Z,972.79
2019-03-23T00:36:27.127Z,972.79
2019-03-23T00:37:27.107Z,972.71
2019-03-23T00:38:27.097Z,972.70
2019-03-23T00:39:27.130Z,972.73
2019-03-23T00:40:27.087Z,972.77
2019-03-23T00:41:27.082Z,972.80
2019-03-23T00:42:27.080Z,972.81
2019-03-23T00:43:27.080Z,972.84
2019-03-23T00:44:27.067Z,972.81
2019-03-23T00:45:27.062Z,972.86
2019-03-23T00:46:27.064Z,972.88
2019-03-23T00:47:27.115Z,972.84
2019-03-23T00:48:27.049Z,972.84
2019-03-23T00:49:27.044Z,972.89
2019-03-23T00:50:27.077Z,972.85
2019-03-23T00:51:27.040Z,972.81
2019-03-23T00:52:27.067Z,972.85
2019-03-23T00:53:27.026Z,972.82
2019-03-23T00:54:27.029Z,972.80
2019-03-23T00:55:27.023Z,972.80
2019-03-23T00:56:27.014Z,972.79
2019-03-23T00:57:27.016Z,972.78
2019-03-23T00:58:27.032Z,972.78
2019-03-23T00:59:27.001Z,972.85
2019-03-23T01:00:26.996Z,972.77
2019-03-23T01:01:27.022Z,972.80
2019-03-23T01:02:26.990Z,972.80
2019-03-23T01:03:26.978Z,972.79
2019-03-23T01:04:26.985Z,972.75
2019-03-23T01:05:26.970Z,972.78
2019-03-23T01:06:26.973Z,972.75
2019-03-23T01:07:28.937Z,972.79
2019-03-23T01:08:26.988Z,972.81
2019-03-23T01:09:26.979Z,972.79
2019-03-23T01:10:26.948Z,972.73
2019-03-23T01:11:26.948Z,972.71
2019-03-23T01:12:26.956Z,972.72
2019-03-23T01:13:26.940Z,972.73
2019-03-23T01:14:26.954Z,972.74
2019-03-23T01:15:26.935Z,972.70
2019-03-23T01:16:26.914Z,972.72
2019-03-23T01:17:26.917Z,972.69
2019-03-23T01:18:26.943Z,972.65
2019-03-23T01:19:26.914Z,972.64
2019-03-23T01:20:26.948Z,972.66
2019-03-23T01:21:26.925Z,972.69
2019-03-23T01:22:26.887Z,972.68
2019-03-23T01:23:26.907Z,972.65
2019-03-23T01:24:26.877Z,972.62
2019-03-23T01:25:26.871Z,972.68
2019-03-23T01:26:26.896Z,972.64
2019-03-23T01:27:26.867Z,972.60
2019-03-23T01:28:26.863Z,972.60
2019-03-23T01:29:26.881Z,972.65
2019-03-23T01:30:26.854Z,972.63
2019-03-23T01:31:26.871Z,972.57
2019-03-23T01:32:26.852Z,972.60
2019-03-23T01:33:26.850Z,972.56
2019-03-23T01:34:26.859Z,972.58
2019-03-23T01:35:26.865Z,972.55
2019-03-23T01:36:26.858Z,972.56
2019-03-23T01:37:26.821Z,972.55
2019-03-23T01:38:26.856Z,972.56
2019-03-23T01:39:26.807Z,972.56
2019-03-23T01:40:26.824Z,972.54
2019-03-23T01:41:26.822Z,972.55
2019-03-23T01:42:26.815Z,972.52
2019-03-23T01:43:26.807Z,972.55
2019-03-23T01:44:26.847Z,972.53
2019-03-23T01:45:26.832Z,972.49
2019-03-23T01:46:26.799Z,972.51
2019-03-23T01:47:26.808Z,972.51
2019-03-23T01:48:26.789Z,972.45
2019-03-23T01:49:26.800Z,972.50
2019-03-23T01:50:26.754Z,972.51
2019-03-23T01:51:26.777Z,972.53
2019-03-23T01:52:26.754Z,972.49
2019-03-23T01:53:26.759Z,972.46
2019-03-23T01:54:26.758Z,972.48
2019-03-23T01:55:26.727Z,972.50
2019-03-23T01:56:26.750Z,972.50
2019-03-23T01:57:26.743Z,972.48
2019-03-23T01:58:26.709Z,972.53
2019-03-23T01:59:26.734Z,972.55
2019-03-23T02:00:26.736Z,972.49
2019-03-23T02:01:26.739Z,972.50
2019-03-23T02:02:26.695Z,972.52
2019-03-23T02:03:26.686Z,972.55
2019-03-23T02:04:26.684Z,972.52
2019-03-23T02:05:26.736Z,972.53
2019-03-23T02:06:26.708Z,972.56
2019-03-23T02:07:26.689Z,972.52
2019-03-23T02:08:26.666Z,972.53
2019-03-23T02:09:26.675Z,972.56
2019-03-23T02:10:26.655Z,972.57
2019-03-23T02:11:26.683Z,972.53
2019-03-23T02:12:26.718Z,972.48
2019-03-23T02:13:26.707Z,972.50
2019-03-23T02:14:26.641Z,972.44
2019-03-23T02:15:26.670Z,972.46
2019-03-23T02:16:26.646Z,972.48
2019-03-23T02:17:26.630Z,972.44
2019-03-23T02:18:26.615Z,972.43
2019-03-23T02:19:26.637Z,972.48
2019-03-23T02:20:26.681Z,972.43
2019-03-23T02:21:26.625Z,972.44
2019-03-23T02:22:26.628Z,972.45
2019-03-23T02:23:26.591Z,972.38
2019-03-23T02:24:26.587Z,972.37
2019-03-23T02:25:26.616Z,972.36
2019-03-23T02:26:26.576Z,972.35
2019-03-23T02:27:26.609Z,972.38
2019-03-23T02:28:26.608Z,972.35
2019-03-23T02:29:26.605Z,972.37
2019-03-23T02:30:26.582Z,972.35
2019-03-23T02:31:26.590Z,972.32
2019-03-23T02:32:26.574Z,972.36
2019-03-23T02:33:26.543Z,972.34
2019-03-23T02:34:26.537Z,972.36
2019-03-23T02:35:26.530Z,972.36
2019-03-23T02:36:26.521Z,972.37
2019-03-23T02:37:28.122Z,972.37
2019-03-23T02:38:26.520Z,972.33
2019-03-23T02:39:26.524Z,972.37
2019-03-23T02:40:26.536Z,972.32
2019-03-23T02:41:26.504Z,972.37
2019-03-23T02:42:26.499Z,972.41
2019-03-23T02:43:26.492Z,972.44
2019-03-23T02:44:26.485Z,972.43
2019-03-23T02:45:26.478Z,972.48
2019-03-23T02:46:26.481Z,972.47
2019-03-23T02:47:26.470Z,972.46
2019-03-23T02:48:26.498Z,972.45
2019-03-23T02:49:26.484Z,972.44
2019-03-23T02:50:26.453Z,972.43
2019-03-23T02:51:26.508Z,972.45
2019-03-23T02:52:26.438Z,972.37
2019-03-23T02:53:26.439Z,972.41
2019-03-23T02:54:26.442Z,972.37
2019-03-23T02:55:26.435Z,972.40
2019-03-23T02:56:26.464Z,972.35
2019-03-23T02:57:26.437Z,972.37
2019-03-23T02:58:26.409Z,972.35
2019-03-23T02:59:26.423Z,972.35
2019-03-23T03:00:27.737Z,972.37
2019-03-23T03:01:26.412Z,972.35
2019-03-23T03:02:26.393Z,972.31
2019-03-23T03:03:26.401Z,972.34
2019-03-23T03:04:26.385Z,972.30
2019-03-23T03:05:26.414Z,972.38
2019-03-23T03:06:26.367Z,972.38
2019-03-23T03:07:26.362Z,972.38
2019-03-23T03:08:26.352Z,972.41
2019-03-23T03:09:26.393Z,972.39
2019-03-23T03:10:26.345Z,972.43
2019-03-23T03:11:26.339Z,972.42
2019-03-23T03:12:26.331Z,972.45
2019-03-23T03:13:26.335Z,972.46
2019-03-23T03:14:26.324Z,972.42
2019-03-23T03:15:26.359Z,972.44
2019-03-23T03:16:26.314Z,972.41
2019-03-23T03:17:26.311Z,972.42
2019-03-23T03:18:26.305Z,972.45
2019-03-23T03:19:26.296Z,972.39
2019-03-23T03:20:26.290Z,972.45
2019-03-23T03:21:26.287Z,972.41
2019-03-23T03:22:26.279Z,972.42
2019-03-23T03:23:26.275Z,972.43
2019-03-23T03:24:26.268Z,972.40
2019-03-23T03:25:26.270Z,972.35
2019-03-23T03:26:26.257Z,972.34
2019-03-23T03:27:26.253Z,972.34
2019-03-23T03:28:26.261Z,972.39
2019-03-23T03:29:26.242Z,972.37
2019-03-23T03:30:26.291Z,972.31
2019-03-23T03:31:26.237Z,972.33
2019-03-23T03:32:26.237Z,972.32
2019-03-23T03:33:26.254Z,972.32
2019-03-23T03:34:26.219Z,972.31
2019-03-23T03:35:26.220Z,972.29
2019-03-23T03:36:28.619Z,972.27
2019-03-23T03:37:26.214Z,972.26
2019-03-23T03:38:26.201Z,972.24
2019-03-23T03:39:26.185Z,972.22
2019-03-23T03:40:26.217Z,972.25
2019-03-23T03:41:26.177Z,972.23
2019-03-23T03:42:26.190Z,972.24
2019-03-23T03:43:26.167Z,972.24
2019-03-23T03:44:26.305Z,972.23
2019-03-23T03:45:26.159Z,972.24
2019-03-23T03:46:26.151Z,972.22
2019-03-23T03:47:26.150Z,972.27
2019-03-23T03:48:26.193Z,972.23
2019-03-23T03:49:26.175Z,972.23
2019-03-23T03:50:26.215Z,972.24
2019-03-23T03:51:26.119Z,972.21
2019-03-23T03:52:26.119Z,972.23
2019-03-23T03:53:26.190Z,972.23
2019-03-23T03:54:26.107Z,972.19
2019-03-23T03:55:26.100Z,972.18
2019-03-23T03:56:26.093Z,972.18
2019-03-23T03:57:26.102Z,972.15
2019-03-23T03:58:26.084Z,972.14
2019-03-23T03:59:26.077Z,972.18
2019-03-23T04:00:26.070Z,972.17
2019-03-23T04:01:26.069Z,972.18
2019-03-23T04:02:26.094Z,972.18
2019-03-23T04:03:26.077Z,972.18
2019-03-23T04:04:26.054Z,972.20
2019-03-23T04:05:26.048Z,972.20
2019-03-23T04:06:26.071Z,972.24
2019-03-23T04:07:26.034Z,972.24
2019-03-23T04:08:26.029Z,972.26
2019-03-23T04:09:26.036Z,972.26
2019-03-23T04:10:26.053Z,972.26
2019-03-23T04:11:26.040Z,972.25
2019-03-23T04:12:26.035Z,972.26
2019-03-23T04:13:25.998Z,972.29
2019-03-23T04:14:25.997Z,972.27
2019-03-23T04:15:25.990Z,972.26
2019-03-23T04:16:25.986Z,972.28
2019-03-23T04:17:25.980Z,972.26
2019-03-23T04:18:25.988Z,972.23
2019-03-23T04:19:25.969Z,972.31
2019-03-23T04:20:25.967Z,972.24
2019-03-23T04:21:26.023Z,972.29
2019-03-23T04:22:25.958Z,972.29
2019-03-23T04:23:25.951Z,972.34
2019-03-23T04:24:25.967Z,972.33
2019-03-23T04:25:25.934Z,972.32
2019-03-23T04:26:25.956Z,972.31
2019-03-23T04:27:25.927Z,972.30
2019-03-23T04:28:25.965Z,972.25
2019-03-23T04:29:25.914Z,972.29
2019-03-23T04:30:25.907Z,972.24
2019-03-23T04:31:25.901Z,972.26
2019-03-23T04:32:25.903Z,972.24
2019-03-23T04:33:25.914Z,972.22
2019-03-23T04:34:25.905Z,972.23
2019-03-23T04:35:25.895Z,972.22
2019-03-23T04:36:25.876Z,972.24
2019-03-23T04:37:25.866Z,972.26
2019-03-23T04:38:25.865Z,972.26
2019-03-23T04:39:25.874Z,972.22
2019-03-23T04:40:25.847Z,972.31
2019-03-23T04:41:25.846Z,972.26
2019-03-23T04:42:25.850Z,972.25
2019-03-23T04:43:25.827Z,972.27
2019-03-23T04:44:25.823Z,972.30
2019-03-23T04:45:25.856Z,972.29
2019-03-23T04:46:25.818Z,972.29
2019-03-23T04:47:25.833Z,972.30
2019-03-23T04:48:25.817Z,972.26
2019-03-23T04:49:25.795Z,972.30
2019-03-23T04:50:25.811Z,972.28
2019-03-23T04:51:25.793Z,972.30
2019-03-23T04:52:25.780Z,972.30
2019-03-23T04:53:25.799Z,972.30
2019-03-23T04:54:25.770Z,972.32
2019-03-23T04:55:25.765Z,972.29
2019-03-23T04:56:25.757Z,972.26
2019-03-23T04:57:25.785Z,972.25
2019-03-23T04:58:25.750Z,972.28
2019-03-23T04:59:25.795Z,972.27
2019-03-23T05:00:25.764Z,972.25
2019-03-23T05:01:25.801Z,972.27
2019-03-23T05:02:25.725Z,972.25
2019-03-23T05:03:25.720Z,972.23
2019-03-23T05:04:25.716Z,972.27
2019-03-23T05:05:25.707Z,972.24
2019-03-23T05:06:25.704Z,972.23
2019-03-23T05:07:25.696Z,972.24
2019-03-23T05:08:33.240Z,972.28
2019-03-23T05:09:25.765Z,972.25
2019-03-23T05:10:25.706Z,972.29
2019-03-23T05:11:25.701Z,972.25
2019-03-23T05:12:25.667Z,972.22
2019-03-23T05:13:25.663Z,972.18
2019-03-23T05:14:25.657Z,972.23
2019-03-23T05:15:25.656Z,972.23
2019-03-23T05:16:27.454Z,972.22
2019-03-23T05:17:25.636Z,972.24
2019-03-23T05:18:25.638Z,972.22
2019-03-23T05:19:25.667Z,972.19
2019-03-23T05:20:25.616Z,972.21
2019-03-23T05:21:25.621Z,972.18
2019-03-23T05:22:25.606Z,972.19
2019-03-23T05:23:25.603Z,972.18
2019-03-23T05:24:25.598Z,972.18
2019-03-23T05:25:25.630Z,972.23
2019-03-23T05:26:25.612Z,972.23
2019-03-23T05:27:25.576Z,972.26
2019-03-23T05:28:25.570Z,972.26
2019-03-23T05:29:25.567Z,972.26
2019-03-23T05:30:25.564Z,972.27
2019-03-23T05:31:25.597Z,972.26
2019-03-23T05:32:25.554Z,972.30
2019-03-23T05:33:25.545Z,972.34
2019-03-23T05:34:25.543Z,972.30
2019-03-23T05:35:25.537Z,972.33
2019-03-23T05:36:25.553Z,972.31
2019-03-23T05:37:25.525Z,972.28
2019-03-23T05:38:25.523Z,972.33
2019-03-23T05:39:25.522Z,972.31
2019-03-23T05:40:25.531Z,972.30
2019-03-23T05:41:25.516Z,972.32
2019-03-23T05:42:25.496Z,972.30
2019-03-23T05:43:25.549Z,972.31
2019-03-23T05:44:25.511Z,972.29
2019-03-23T05:45:25.497Z,972.30
2019-03-23T05:46:25.472Z,972.31
2019-03-23T05:47:25.466Z,972.30
2019-03-23T05:48:25.460Z,972.33
2019-03-23T05:49:25.472Z,972.32
2019-03-23T05:50:25.449Z,972.32
2019-03-23T05:51:25.449Z,972.31
2019-03-23T05:52:25.438Z,972.31
2019-03-23T05:53:26.975Z,972.30
2019-03-23T05:54:25.437Z,972.33
2019-03-23T05:55:25.425Z,972.31
2019-03-23T05:56:25.414Z,972.33
2019-03-23T05:57:25.409Z,972.31
2019-03-23T05:58:25.402Z,972.35
2019-03-23T05:59:25.422Z,972.35
2019-03-23T06:00:25.389Z,972.38
2019-03-23T06:01:26.980Z,972.38
2019-03-23T06:02:25.383Z,972.32
2019-03-23T06:03:25.374Z,972.34
2019-03-23T06:04:25.365Z,972.33
2019-03-23T06:05:25.390Z,972.34
2019-03-23T06:06:25.366Z,972.35
2019-03-23T06:07:25.353Z,972.37
2019-03-23T06:08:25.347Z,972.36
2019-03-23T06:09:25.345Z,972.41
2019-03-23T06:10:25.341Z,972.40
2019-03-23T06:11:25.348Z,972.38
2019-03-23T06:12:25.323Z,972.39
2019-03-23T06:13:25.321Z,972.42
2019-03-23T06:14:26.958Z,972.41
2019-03-23T06:15:25.335Z,972.47
2019-03-23T06:16:25.326Z,972.44
2019-03-23T06:17:25.306Z,972.48
2019-03-23T06:18:25.297Z,972.46
2019-03-23T06:19:25.290Z,972.49
2019-03-23T06:20:25.289Z,972.45
2019-03-23T06:21:25.282Z,972.49
2019-03-23T06:22:25.292Z,972.49
2019-03-23T06:23:25.268Z,972.49
2019-03-23T06:24:25.260Z,972.45
2019-03-23T06:25:25.361Z,972.48
2019-03-23T06:26:25.253Z,972.49
2019-03-23T06:27:25.273Z,972.49
2019-03-23T06:28:25.252Z,972.47
2019-03-23T06:29:33.203Z,972.45
2019-03-23T06:31:19.143Z,972.45
2019-03-23T06:32:20.593Z,972.44
2019-03-23T06:34:11.343Z,972.45
2019-03-23T06:35:10.982Z,972.43
2019-03-23T06:37:06.315Z,972.50
2019-03-23T06:38:05.813Z,972.55
2019-03-23T06:39:58.659Z,972.56
2019-03-23T06:40:59.129Z,972.60
2019-03-23T06:42:59.364Z,972.61
2019-03-23T06:43:50.991Z,972.65
2019-03-23T06:45:44.262Z,972.64
2019-03-23T06:46:44.408Z,972.65
2019-03-23T06:48:38.473Z,972.70
2019-03-23T06:49:38.365Z,972.73
2019-03-23T06:51:31.292Z,972.78
2019-03-23T06:52:31.338Z,972.81
2019-03-23T06:54:24.111Z,972.89
2019-03-23T06:55:23.949Z,972.85
2019-03-23T06:57:16.947Z,972.90
2019-03-23T06:58:16.931Z,972.88
2019-03-23T07:00:09.936Z,972.96
2019-03-23T07:01:09.879Z,972.96
2019-03-23T07:03:03.232Z,973.02
2019-03-23T07:04:03.096Z,973.06
2019-03-23T07:05:56.505Z,973.29
2019-03-23T07:06:56.419Z,973.44
2019-03-23T07:08:49.857Z,973.50
2019-03-23T07:09:49.934Z,973.49
2019-03-23T07:11:43.086Z,973.85
2019-03-23T07:12:42.954Z,974.33
2019-03-23T07:14:36.144Z,974.87
2019-03-23T07:15:36.198Z,974.55
2019-03-23T07:17:29.066Z,973.95
2019-03-23T07:18:30.013Z,973.88
2019-03-23T07:20:21.847Z,973.69
2019-03-23T07:21:21.870Z,973.64
2019-03-23T07:23:14.722Z,973.56
2019-03-23T07:24:14.449Z,973.57
2019-03-23T07:26:07.791Z,973.45
2019-03-23T07:27:07.549Z,973.46
2019-03-23T07:28:08.046Z,973.44
2019-03-23T07:29:08.477Z,973.50
2019-03-23T07:30:07.966Z,973.42
2019-03-23T07:31:07.580Z,973.47
2019-03-23T07:32:07.494Z,973.45
2019-03-23T07:33:07.508Z,973.46
2019-03-23T07:34:07.495Z,973.45
2019-03-23T07:35:07.532Z,973.43
2019-03-23T07:36:07.541Z,973.42
2019-03-23T07:37:07.514Z,973.43
2019-03-23T07:38:07.544Z,973.40
2019-03-23T07:39:07.548Z,973.39
2019-03-23T07:40:07.566Z,973.36
2019-03-23T07:41:07.556Z,973.34
2019-03-23T07:42:07.564Z,973.38
2019-03-23T07:43:07.546Z,973.37
2019-03-23T07:44:07.557Z,973.43
2019-03-23T07:45:07.566Z,973.44
2019-03-23T07:46:07.606Z,973.36
2019-03-23T07:47:07.602Z,973.37
2019-03-23T07:48:07.581Z,973.44
2019-03-23T07:49:07.631Z,973.51
2019-03-23T07:50:07.704Z,973.46
2019-03-23T07:51:07.608Z,973.42
2019-03-23T07:53:00.900Z,973.64
2019-03-23T07:54:02.611Z,973.73
2019-03-23T07:55:54.364Z,973.90
2019-03-23T07:56:54.016Z,973.88
2019-03-23T07:58:49.841Z,973.51
2019-03-23T07:59:49.380Z,973.30
2019-03-23T08:01:41.731Z,973.13
2019-03-23T08:02:41.819Z,973.13
2019-03-23T08:04:35.324Z,973.11
2019-03-23T08:05:35.200Z,973.17
2019-03-23T08:07:30.201Z,973.37
2019-03-23T08:08:28.521Z,973.59
2019-03-23T08:09:37.390Z,973.83
2019-03-23T08:10:28.151Z,974.02
2019-03-23T08:11:28.443Z,974.00
2019-03-23T08:12:29.610Z,974.06
2019-03-23T08:13:28.214Z,974.15
2019-03-23T08:14:28.107Z,974.17
2019-03-23T08:15:28.108Z,974.18
2019-03-23T08:16:28.108Z,974.18
2019-03-23T08:17:28.118Z,974.15
2019-03-23T08:18:28.127Z,974.12
2019-03-23T08:19:28.150Z,974.19
2019-03-23T08:20:28.148Z,974.19
2019-03-23T08:21:28.322Z,974.20
2019-03-23T08:22:28.198Z,974.20
2019-03-23T08:23:28.205Z,974.23
2019-03-23T08:24:28.218Z,974.26
2019-03-23T08:25:28.205Z,974.27
2019-03-23T08:26:28.236Z,974.29
2019-03-23T08:27:28.975Z,974.34
2019-03-23T08:28:28.232Z,974.32
2019-03-23T08:29:28.250Z,974.33
2019-03-23T08:30:28.281Z,974.32
2019-03-23T08:31:28.286Z,974.29
2019-03-23T08:32:28.280Z,974.29
2019-03-23T08:33:28.310Z,974.27
2019-03-23T08:34:28.326Z,974.29
2019-03-23T08:35:28.314Z,974.26
2019-03-23T08:36:28.348Z,974.25
2019-03-23T08:37:28.339Z,974.22
2019-03-23T08:38:28.379Z,974.26
2019-03-23T08:39:28.435Z,974.27
2019-03-23T08:40:28.424Z,974.25
2019-03-23T08:41:28.393Z,974.25
2019-03-23T08:42:28.455Z,974.28
2019-03-23T08:43:28.831Z,974.22
2019-03-23T08:44:31.587Z,974.18
2019-03-23T08:45:28.863Z,974.17
2019-03-23T08:46:46.455Z,974.18
2019-03-23T08:47:29.473Z,974.22
2019-03-23T08:48:35.415Z,974.19
2019-03-23T08:49:28.922Z,974.16
2019-03-23T08:50:32.635Z,974.13
2019-03-23T08:51:53.097Z,974.08
2019-03-23T08:52:29.029Z,974.03
2019-03-23T08:53:28.638Z,974.08
2019-03-23T08:54:28.580Z,974.09
2019-03-23T08:55:28.560Z,974.10
2019-03-23T08:56:28.577Z,974.10
2019-03-23T08:57:28.596Z,974.07
2019-03-23T08:58:28.600Z,974.07
2019-03-23T08:59:28.613Z,974.09
2019-03-23T09:00:28.736Z,974.08
2019-03-23T09:01:28.695Z,974.07
2019-03-23T09:02:29.020Z,974.09
2019-03-23T09:03:28.745Z,974.11
2019-03-23T09:04:28.709Z,974.10
2019-03-23T09:05:28.733Z,974.09
2019-03-23T09:06:28.966Z,974.14
2019-03-23T09:07:28.928Z,974.10
2019-03-23T09:08:29.058Z,974.12
2019-03-23T09:09:28.911Z,974.07
2019-03-23T09:10:29.717Z,974.08
2019-03-23T09:11:29.210Z,974.10
2019-03-23T09:12:29.804Z,974.11
2019-03-23T09:13:28.800Z,974.10
2019-03-23T09:14:28.835Z,974.14
2019-03-23T09:15:28.848Z,974.12
2019-03-23T09:16:28.921Z,974.11
2019-03-23T09:17:28.865Z,974.15
2019-03-23T09:18:28.924Z,974.17
2019-03-23T09:19:28.928Z,974.26
2019-03-23T09:20:29.632Z,974.20
2019-03-23T09:21:28.919Z,974.23
2019-03-23T09:22:28.963Z,974.27
2019-03-23T09:23:28.969Z,974.29
2019-03-23T09:24:28.986Z,974.28
2019-03-23T09:25:28.977Z,974.28
2019-03-23T09:26:30.016Z,974.28
2019-03-23T09:27:29.041Z,974.30
2019-03-23T09:28:29.152Z,974.31
2019-03-23T09:29:29.148Z,974.31
2019-03-23T09:30:29.125Z,974.28
2019-03-23T09:31:29.247Z,974.29
2019-03-23T09:32:29.080Z,974.31
2019-03-23T09:33:29.090Z,974.27
2019-03-23T09:34:29.275Z,974.34
2019-03-23T09:35:29.624Z,974.32
2019-03-23T09:36:29.291Z,974.34
2019-03-23T09:37:29.724Z,974.29
2019-03-23T09:38:29.172Z,974.37
2019-03-23T09:39:29.193Z,974.35
2019-03-23T09:40:29.222Z,974.29
2019-03-23T09:41:29.220Z,974.28
2019-03-23T09:42:29.287Z,974.32
2019-03-23T09:43:29.292Z,974.33
2019-03-23T09:44:29.306Z,974.30
2019-03-23T09:45:29.310Z,974.26
2019-03-23T09:46:29.328Z,974.34
2019-03-23T09:47:29.334Z,974.35
2019-03-23T09:48:29.401Z,974.28
2019-03-23T09:49:29.364Z,974.33
2019-03-23T09:50:29.497Z,974.32
2019-03-23T09:51:29.482Z,974.34
2019-03-23T09:52:32.566Z,974.31
2019-03-23T09:53:29.750Z,974.35
2019-03-23T09:54:29.802Z,974.37
2019-03-23T09:55:37.230Z,974.36
2019-03-23T09:56:30.025Z,974.40
2019-03-23T09:57:30.049Z,974.36
2019-03-23T09:58:29.518Z,974.24
2019-03-23T09:59:29.537Z,973.59
2019-03-23T10:00:29.543Z,973.11
2019-03-23T10:01:29.556Z,973.09
2019-03-23T10:02:29.561Z,973.08
2019-03-23T10:03:29.603Z,973.06
2019-03-23T10:04:29.624Z,972.97
2019-03-23T10:05:29.655Z,972.94
2019-03-23T10:06:29.739Z,972.99
2019-03-23T10:07:29.698Z,972.97
2019-03-23T10:08:29.681Z,973.04
2019-03-23T10:09:29.726Z,973.00
2019-03-23T10:10:29.785Z,972.98
2019-03-23T10:13:10.578Z,973.06
2019-03-23T10:14:10.604Z,973.06
2019-03-23T10:16:04.120Z,973.11
2019-03-23T10:17:04.983Z,973.07
2019-03-23T10:18:58.045Z,973.03
2019-03-23T10:19:57.960Z,973.09
2019-03-23T10:20:57.355Z,973.06
2019-03-23T10:21:58.035Z,973.05
2019-03-23T10:22:57.479Z,973.07
2019-03-23T10:26:12.101Z,973.06
2019-03-23T10:27:02.245Z,973.09
2019-03-23T10:28:11.433Z,973.05
2019-03-23T10:30:19.264Z,973.05
2019-03-23T10:38:54.534Z,973.01
2019-03-23T10:39:58.923Z,973.04
2019-03-23T10:41:39.679Z,973.02
2019-03-23T10:42:39.727Z,973.04
2019-03-23T10:44:57.297Z,973.01
2019-03-23T10:47:18.542Z,972.99
2019-03-23T10:49:49.819Z,972.98
2019-03-23T11:19:45.283Z,972.90
2019-03-23T11:20:38.688Z,972.89
2019-03-23T11:22:32.613Z,972.89
2019-03-23T11:23:32.417Z,972.90
2019-03-23T12:43:45.992Z,972.57
2019-03-23T12:46:33.298Z,972.55
2019-03-23T12:47:35.835Z,972.52
2019-03-23T13:21:10.204Z,972.49
2019-03-23T13:45:42.594Z,972.38
2019-03-23T13:50:34.112Z,972.36
2019-03-23T13:51:02.810Z,972.37
2019-03-23T14:22:04.189Z,972.47
2019-03-23T14:24:59.827Z,972.42
2019-03-23T14:27:42.996Z,972.40
2019-03-23T14:28:42.508Z,972.39
2019-03-23T14:30:36.114Z,972.41
2019-03-23T14:31:35.942Z,972.37
2019-03-23T14:32:36.411Z,972.38
2019-03-23T14:33:35.780Z,972.40
2019-03-23T14:34:37.532Z,972.38
2019-03-23T14:37:00.498Z,972.44
2019-03-23T14:37:59.482Z,972.42
2019-03-23T14:39:52.787Z,972.40
2019-03-23T14:40:52.812Z,972.43
2019-03-23T14:42:46.668Z,972.42
2019-03-23T14:43:46.650Z,972.42
2019-03-23T14:45:39.674Z,972.43
2019-03-23T14:46:40.669Z,972.45
2019-03-23T14:48:47.955Z,972.41
2019-03-23T14:56:31.388Z,972.46
2019-03-23T14:57:22.004Z,972.49
2019-03-23T15:01:58.711Z,972.46
2019-03-23T15:03:00.524Z,972.48
2019-03-23T15:04:44.651Z,972.47
2019-03-23T15:05:44.665Z,972.53
2019-03-23T15:07:38.608Z,972.50
2019-03-23T15:08:38.603Z,972.50
2019-03-23T15:09:39.133Z,972.54
2019-03-23T15:10:38.074Z,972.53
2019-03-23T15:11:38.086Z,972.50
2019-03-23T15:12:39.061Z,972.52
2019-03-23T15:13:38.098Z,972.50
2019-03-23T15:14:39.051Z,972.52
2019-03-23T15:15:39.571Z,972.50
2019-03-23T15:16:38.628Z,972.52
2019-03-23T15:17:48.040Z,972.53
2019-03-23T15:18:39.174Z,972.56
2019-03-23T15:19:39.032Z,972.54
2019-03-23T15:20:38.001Z,972.59
2019-03-23T15:21:38.125Z,972.63
2019-03-23T15:22:38.641Z,972.63
2019-03-23T15:25:18.516Z,972.64
2019-03-23T15:27:50.019Z,972.72
2019-03-23T15:31:24.272Z,972.73
2019-03-23T15:32:33.642Z,972.78
2019-03-23T15:34:16.776Z,972.79
2019-03-23T15:35:17.224Z,972.79
2019-03-23T15:36:17.163Z,972.73
2019-03-23T15:37:17.213Z,972.80
2019-03-23T15:38:17.201Z,972.75
2019-03-23T15:39:17.200Z,972.77
2019-03-23T15:40:16.764Z,972.79
2019-03-23T15:41:16.273Z,972.77
2019-03-23T15:42:24.495Z,972.80
2019-03-23T15:43:16.801Z,972.89
2019-03-23T15:44:23.398Z,972.88
2019-03-23T15:46:09.176Z,972.93
2019-03-23T15:48:34.824Z,972.90
2019-03-23T15:49:35.310Z,972.89
2019-03-23T15:51:27.267Z,972.93
2019-03-23T15:52:27.606Z,972.95
2019-03-23T15:54:34.801Z,973.00
2019-03-23T15:55:32.890Z,972.97
2019-03-23T15:57:14.820Z,973.01
2019-03-23T15:58:14.099Z,973.02
2019-03-23T16:02:03.417Z,973.03
2019-03-23T16:03:06.355Z,973.06
2019-03-23T16:04:53.812Z,973.10
2019-03-23T16:05:53.569Z,973.10
2019-03-23T16:06:53.608Z,973.13
2019-03-23T16:07:55.796Z,973.14
2019-03-23T16:08:53.277Z,973.14
2019-03-23T16:09:53.091Z,973.16
2019-03-23T16:10:52.207Z,973.16
2019-03-23T16:13:23.844Z,973.19
2019-03-23T16:14:28.566Z,973.21
2019-03-23T16:19:57.381Z,973.32
2019-03-23T16:20:57.495Z,973.35
2019-03-23T16:22:55.777Z,973.42
2019-03-23T16:23:53.771Z,973.39
2019-03-23T16:24:51.723Z,973.42
2019-03-23T16:25:50.778Z,973.49
2019-03-23T16:26:50.692Z,973.47
2019-03-23T16:27:54.747Z,973.51
2019-03-23T16:28:51.732Z,973.49
2019-03-23T16:29:50.347Z,973.50
2019-03-23T16:30:50.704Z,973.52
2019-03-23T16:31:59.421Z,973.59
2019-03-23T16:33:44.236Z,973.58
2019-03-23T16:34:50.774Z,973.62
2019-03-23T16:36:36.514Z,973.66
2019-03-23T16:37:37.498Z,973.64
2019-03-23T16:38:36.527Z,973.64
2019-03-23T16:39:36.950Z,973.63
2019-03-23T16:40:38.052Z,973.61
2019-03-23T16:41:36.179Z,973.64
2019-03-23T16:42:44.547Z,973.61
2019-03-23T16:43:36.921Z,973.63
2019-03-23T16:44:36.539Z,973.65
2019-03-23T16:45:37.444Z,973.64
2019-03-23T16:46:36.499Z,973.69
2019-03-23T16:47:36.249Z,973.69
2019-03-23T16:48:37.472Z,973.64
2019-03-23T16:49:37.060Z,973.65
2019-03-23T16:50:37.509Z,973.64
2019-03-23T16:51:37.056Z,973.68
2019-03-23T16:52:37.063Z,973.62
2019-03-23T16:53:36.348Z,973.69
2019-03-23T16:54:36.045Z,973.68
2019-03-23T16:55:36.068Z,973.71
2019-03-23T16:56:36.076Z,973.70
2019-03-23T16:57:36.043Z,973.75
2019-03-23T16:58:46.047Z,973.72
2019-03-23T17:00:33.722Z,973.71
2019-03-23T17:01:32.111Z,973.71
2019-03-23T17:02:30.172Z,973.68
2019-03-23T17:03:31.928Z,973.71
2019-03-23T17:04:31.034Z,973.72
2019-03-23T17:05:30.527Z,973.70
2019-03-23T17:06:31.394Z,973.66
2019-03-23T17:07:31.059Z,973.68
2019-03-23T17:08:31.054Z,973.68
2019-03-23T17:09:31.031Z,973.65
2019-03-23T17:10:31.010Z,973.65
2019-03-23T17:11:31.431Z,973.70
2019-03-23T17:12:31.026Z,973.70
2019-03-23T17:13:30.542Z,973.71
2019-03-23T17:14:30.461Z,973.71
2019-03-23T17:15:31.407Z,973.69
2019-03-23T17:16:31.047Z,973.76
2019-03-23T17:17:31.019Z,973.72